Time;durP1;ratioP1;P1;durP2;ratioP2;P2;SDS_P1;SDS_P2;PMS_P1;PMS_P2;Temp;Humidity;BMP_temperature;BMP_pressure;BME280_temperature;BME280_humidity;BME280_pressure;Samples;Min_cycle;Max_cycle;Signal;HPM_P1;HPM_P2
2022/03/20 00:00:54;;;;;;;;;;;10.10;37.10;;;;;;5042206;28;19920;-91
2022/03/20 00:03:21;;;;;;;;;;;10.10;37.10;;;;;;5045159;28;20395;-90
2022/03/20 00:05:48;;;;;;;;;;;10.00;37.10;;;;;;5047645;28;19998;-88
2022/03/20 00:08:14;;;;;;;;;;;10.00;37.10;;;;;;5046751;28;19978;-89
2022/03/20 00:10:45;;;;;;;;;;;10.00;37.10;;;;;;5052730;28;19939;-90
2022/03/20 00:13:11;;;;;;;;;;;10.00;37.10;;;;;;5081554;28;19917;-88
2022/03/20 00:15:40;;;;;;;;;;;9.90;37.20;;;;;;5077028;28;19988;-91
2022/03/20 00:18:12;;;;;;;;;;;9.90;37.30;;;;;;5067704;28;19947;-89
2022/03/20 00:20:38;;;;;;;;;;;9.90;37.30;;;;;;5061926;28;19955;-91
2022/03/20 00:23:07;;;;;;;;;;;9.90;37.40;;;;;;5061172;28;19922;-91
2022/03/20 00:25:37;;;;;;;;;;;9.90;37.40;;;;;;5079779;28;19951;-91
2022/03/20 00:28:06;;;;;;;;;;;9.90;37.50;;;;;;5063447;28;20355;-91
2022/03/20 00:30:32;;;;;;;;;;;9.80;37.60;;;;;;5088676;28;19916;-89
2022/03/20 00:32:57;;;;;;;;;;;9.80;37.60;;;;;;5088744;28;19927;-89
2022/03/20 00:35:23;;;;;;;;;;;9.80;37.60;;;;;;5104549;28;20502;-90
2022/03/20 00:37:49;;;;;;;;;;;9.80;37.60;;;;;;5103026;28;19942;-89
2022/03/20 00:40:14;;;;;;;;;;;9.80;37.50;;;;;;5083066;28;19938;-91
2022/03/20 00:42:40;;;;;;;;;;;9.80;37.40;;;;;;5083735;28;19916;-91
2022/03/20 00:45:05;;;;;;;;;;;9.80;37.20;;;;;;5096496;28;19958;-88
2022/03/20 00:47:31;;;;;;;;;;;9.80;37.10;;;;;;5085741;28;19920;-89
2022/03/20 00:49:57;;;;;;;;;;;9.70;37.00;;;;;;5082995;28;19916;-90
2022/03/20 00:52:22;;;;;;;;;;;9.80;36.80;;;;;;5081967;28;19920;-91
2022/03/20 00:54:48;;;;;;;;;;;9.80;36.70;;;;;;5093626;28;19918;-90
2022/03/20 00:57:13;;;;;;;;;;;9.80;36.40;;;;;;5078228;28;19927;-91
2022/03/20 00:59:39;;;;;;;;;;;9.70;36.20;;;;;;5060825;28;19916;-89
2022/03/20 01:02:05;;;;;;;;;;;9.70;36.10;;;;;;5059660;28;19924;-90
2022/03/20 01:04:30;;;;;;;;;;;9.70;36.10;;;;;;5064419;28;19936;-89
2022/03/20 01:07:00;;;;;;;;;;;9.80;35.80;;;;;;5067233;28;19920;-90
2022/03/20 01:09:28;;;;;;;;;;;9.70;35.70;;;;;;5085371;28;19917;-91
2022/03/20 01:11:55;;;;;;;;;;;9.70;35.70;;;;;;5061807;28;19917;-91
2022/03/20 01:14:21;;;;;;;;;;;9.70;35.60;;;;;;5066355;28;19920;-91
2022/03/20 01:16:46;;;;;;;;;;;9.70;35.60;;;;;;5080386;28;19966;-89
2022/03/20 01:19:12;;;;;;;;;;;9.60;35.50;;;;;;5060990;28;19920;-90
2022/03/20 01:21:37;;;;;;;;;;;9.60;35.50;;;;;;5060594;28;20047;-89
2022/03/20 01:24:03;;;;;;;;;;;9.60;35.40;;;;;;5081510;28;20010;-90
2022/03/20 01:26:29;;;;;;;;;;;9.60;35.40;;;;;;5062797;28;19970;-89
2022/03/20 01:28:54;;;;;;;;;;;9.60;35.30;;;;;;5065841;28;20024;-91
2022/03/20 01:31:20;;;;;;;;;;;9.50;35.30;;;;;;5067393;28;19924;-92
2022/03/20 01:33:45;;;;;;;;;;;9.50;35.30;;;;;;5038365;28;19917;-91
2022/03/20 01:36:11;;;;;;;;;;;9.50;35.30;;;;;;5047115;28;19923;-92
2022/03/20 01:38:36;;;;;;;;;;;9.50;35.40;;;;;;5061879;28;19971;-91
2022/03/20 01:41:02;;;;;;;;;;;9.40;35.40;;;;;;5036817;28;19921;-92
2022/03/20 01:43:27;;;;;;;;;;;9.30;35.50;;;;;;5039920;28;19917;-92
2022/03/20 01:45:53;;;;;;;;;;;9.30;35.70;;;;;;5040366;28;20439;-91
2022/03/20 01:48:18;;;;;;;;;;;9.20;35.70;;;;;;5043147;28;19924;-92
2022/03/20 01:50:44;;;;;;;;;;;9.20;35.90;;;;;;5039677;28;19921;-92
2022/03/20 01:53:10;;;;;;;;;;;9.10;36.00;;;;;;5055937;28;20329;-91
2022/03/20 01:55:35;;;;;;;;;;;9.00;36.00;;;;;;5038756;28;19920;-92
2022/03/20 01:58:02;;;;;;;;;;;9.00;36.20;;;;;;5039875;28;19920;-90
2022/03/20 02:00:28;;;;;;;;;;;9.00;36.20;;;;;;5045041;28;20341;-91
2022/03/20 02:02:53;;;;;;;;;;;8.90;36.30;;;;;;5061797;28;20004;-92
2022/03/20 02:05:19;;;;;;;;;;;8.90;36.30;;;;;;5055357;28;19960;-92
2022/03/20 02:07:45;;;;;;;;;;;8.90;36.20;;;;;;5056957;28;19917;-92
2022/03/20 02:10:11;;;;;;;;;;;8.90;36.10;;;;;;5038526;28;20031;-92
2022/03/20 02:12:37;;;;;;;;;;;8.90;36.10;;;;;;5062227;28;19905;-90
2022/03/20 02:15:03;;;;;;;;;;;8.90;35.90;;;;;;5040127;28;19936;-91
2022/03/20 02:17:30;;;;;;;;;;;8.90;35.90;;;;;;5040510;28;19982;-92
2022/03/20 02:19:59;;;;;;;;;;;8.90;35.70;;;;;;5055504;28;20012;-89
2022/03/20 02:22:25;;;;;;;;;;;9.00;35.60;;;;;;5041192;28;19924;-90
2022/03/20 02:24:51;;;;;;;;;;;8.90;35.60;;;;;;5037940;28;19989;-90
2022/03/20 02:27:18;;;;;;;;;;;9.00;35.50;;;;;;5038763;28;19925;-92
2022/03/20 02:29:46;;;;;;;;;;;9.00;35.40;;;;;;5035095;28;19920;-90
2022/03/20 02:32:13;;;;;;;;;;;9.00;35.40;;;;;;5077056;28;20015;-92
2022/03/20 02:34:42;;;;;;;;;;;8.90;35.40;;;;;;5056594;28;19924;-92
2022/03/20 02:37:08;;;;;;;;;;;8.90;35.40;;;;;;5079229;28;19916;-90
2022/03/20 02:39:34;;;;;;;;;;;8.90;35.20;;;;;;5072965;28;20011;-90
2022/03/20 02:42:01;;;;;;;;;;;8.90;35.10;;;;;;5056173;28;19942;-90
2022/03/20 02:44:45;;;;;;;;;;;8.90;35.10;;;;;;5055437;28;19952;-92
2022/03/20 02:47:10;;;;;;;;;;;8.90;35.00;;;;;;5057729;28;19916;-91
2022/03/20 02:49:37;;;;;;;;;;;8.90;35.00;;;;;;5079962;28;19923;-90
2022/03/20 02:52:03;;;;;;;;;;;8.90;35.00;;;;;;5055042;28;19920;-91
2022/03/20 02:54:28;;;;;;;;;;;8.90;34.90;;;;;;5057622;28;19966;-92
2022/03/20 02:56:54;;;;;;;;;;;8.90;34.90;;;;;;5077124;28;19928;-90
2022/03/20 02:59:20;;;;;;;;;;;8.90;34.80;;;;;;5062171;28;19931;-89
2022/03/20 03:01:46;;;;;;;;;;;8.80;34.90;;;;;;5076851;28;19924;-92
2022/03/20 03:04:12;;;;;;;;;;;8.80;35.00;;;;;;5058566;28;19936;-91
2022/03/20 03:06:37;;;;;;;;;;;8.80;34.90;;;;;;5076081;28;19923;-91
2022/03/20 03:11:47;;;;;;;;;;;8.80;34.90;;;;;;5074507;28;19943;-91
2022/03/20 03:16:57;;;;;;;;;;;8.70;34.90;;;;;;5076703;28;19942;-92
2022/03/20 03:19:23;;;;;;;;;;;8.70;34.90;;;;;;5055064;28;19929;-91
2022/03/20 03:21:48;;;;;;;;;;;8.70;34.90;;;;;;5055251;28;19966;-92
2022/03/20 03:24:14;;;;;;;;;;;8.70;34.90;;;;;;5077767;28;19908;-90
2022/03/20 03:26:39;;;;;;;;;;;8.70;34.80;;;;;;5061799;28;19925;-91
2022/03/20 03:29:05;;;;;;;;;;;8.60;34.90;;;;;;5058867;28;19917;-90
2022/03/20 03:31:31;;;;;;;;;;;8.50;34.90;;;;;;5059264;28;19921;-87
2022/03/20 03:36:41;;;;;;;;;;;8.50;34.90;;;;;;5080913;28;19931;-88
2022/03/20 03:39:08;;;;;;;;;;;8.40;35.00;;;;;;5057528;28;20031;-90
2022/03/20 03:41:33;;;;;;;;;;;8.50;34.90;;;;;;5061050;28;19920;-90
2022/03/20 03:43:59;;;;;;;;;;;8.40;34.90;;;;;;5081559;28;19935;-89
2022/03/20 03:46:24;;;;;;;;;;;8.40;34.90;;;;;;5062692;28;19955;-89
2022/03/20 03:48:50;;;;;;;;;;;8.30;34.90;;;;;;5080219;28;19942;-88
2022/03/20 03:51:15;;;;;;;;;;;8.30;34.80;;;;;;5080810;28;19978;-90
2022/03/20 03:53:41;;;;;;;;;;;8.30;34.80;;;;;;5078423;28;20359;-90
2022/03/20 03:56:06;;;;;;;;;;;8.30;34.80;;;;;;5058676;28;19913;-88
2022/03/20 03:58:32;;;;;;;;;;;8.30;34.70;;;;;;5082298;28;19991;-88
2022/03/20 04:00:57;;;;;;;;;;;8.40;34.70;;;;;;5084167;28;19912;-89
2022/03/20 04:03:23;;;;;;;;;;;8.40;34.70;;;;;;5059810;28;20028;-90
2022/03/20 04:05:48;;;;;;;;;;;8.40;34.60;;;;;;5060175;28;20007;-89
2022/03/20 04:08:15;;;;;;;;;;;8.30;34.60;;;;;;5062458;28;19916;-90
2022/03/20 04:10:41;;;;;;;;;;;8.30;34.70;;;;;;5084463;28;19998;-89
2022/03/20 04:13:07;;;;;;;;;;;8.20;34.70;;;;;;5059010;28;19916;-90
2022/03/20 04:15:32;;;;;;;;;;;8.20;34.80;;;;;;5078695;28;19966;-89
2022/03/20 04:18:00;;;;;;;;;;;8.20;34.80;;;;;;5065148;28;19921;-89
2022/03/20 04:20:26;;;;;;;;;;;8.10;34.80;;;;;;5081410;28;19916;-90
2022/03/20 04:25:52;;;;;;;;;;;8.00;35.00;;;;;;5013663;28;19917;-88
2022/03/20 04:28:21;;;;;;;;;;;7.90;35.20;;;;;;5051359;28;19924;-90
2022/03/20 04:30:48;;;;;;;;;;;7.90;35.30;;;;;;5061567;28;19959;-89
2022/03/20 04:33:14;;;;;;;;;;;7.90;35.40;;;;;;5059936;28;19916;-89
2022/03/20 04:35:39;;;;;;;;;;;7.90;35.50;;;;;;5078100;28;20458;-88
2022/03/20 04:38:05;;;;;;;;;;;7.80;35.50;;;;;;5079944;28;19924;-90
2022/03/20 04:40:31;;;;;;;;;;;7.80;35.50;;;;;;5077791;28;19950;-88
2022/03/20 04:42:59;;;;;;;;;;;7.80;35.60;;;;;;5062066;28;20418;-91
2022/03/20 04:45:26;;;;;;;;;;;7.80;35.60;;;;;;5075933;28;19956;-89
2022/03/20 04:58:48;;;;;;;;;;;7.50;36.10;;;;;;5080392;28;19911;-90
2022/03/20 05:01:14;;;;;;;;;;;7.50;36.20;;;;;;5077750;28;19916;-89
2022/03/20 05:03:40;;;;;;;;;;;7.50;36.20;;;;;;5079114;28;19916;-89
2022/03/20 05:06:05;;;;;;;;;;;7.50;36.30;;;;;;5060823;28;19923;-89
2022/03/20 05:08:38;;;;;;;;;;;7.50;36.30;;;;;;5063187;28;20421;-88
2022/03/20 05:13:47;;;;;;;;;;;7.50;36.30;;;;;;5079304;28;19966;-88
2022/03/20 05:16:13;;;;;;;;;;;7.50;36.40;;;;;;5061708;28;19908;-90
2022/03/20 05:18:38;;;;;;;;;;;7.40;36.40;;;;;;5079348;28;19974;-90
2022/03/20 05:21:04;;;;;;;;;;;7.50;36.40;;;;;;5057475;28;19927;-91
2022/03/20 05:23:29;;;;;;;;;;;7.50;36.40;;;;;;5057500;28;19917;-90
2022/03/20 05:25:55;;;;;;;;;;;7.50;36.40;;;;;;5061658;28;19909;-89
2022/03/20 05:28:21;;;;;;;;;;;7.50;36.40;;;;;;5060163;28;20010;-90
2022/03/20 05:30:46;;;;;;;;;;;7.50;36.40;;;;;;5055537;28;19988;-88
2022/03/20 05:33:12;;;;;;;;;;;7.50;36.30;;;;;;5062414;28;19924;-90
2022/03/20 05:35:39;;;;;;;;;;;7.60;36.40;;;;;;5060036;28;19964;-90
2022/03/20 05:38:06;;;;;;;;;;;7.60;36.30;;;;;;5041406;28;19932;-90
2022/03/20 05:40:31;;;;;;;;;;;7.60;36.40;;;;;;5042898;28;20356;-89
2022/03/20 05:42:57;;;;;;;;;;;7.60;36.40;;;;;;5041558;28;19932;-88
2022/03/20 05:45:23;;;;;;;;;;;7.70;36.50;;;;;;5041438;28;19924;-89
2022/03/20 05:47:49;;;;;;;;;;;7.80;36.50;;;;;;5058373;28;20015;-90
2022/03/20 05:50:15;;;;;;;;;;;7.80;36.50;;;;;;5060586;28;19975;-89
2022/03/20 05:52:40;;;;;;;;;;;7.90;36.50;;;;;;5042546;28;19964;-89
2022/03/20 05:55:06;;;;;;;;;;;8.00;36.50;;;;;;5060383;28;19952;-88
2022/03/20 06:00:22;;;;;;;;;;;8.30;36.20;;;;;;5062160;28;19943;-88
2022/03/20 06:02:48;;;;;;;;;;;8.40;36.10;;;;;;5068961;28;19925;-88
2022/03/20 06:05:14;;;;;;;;;;;8.60;36.10;;;;;;5043990;28;19984;-88
2022/03/20 06:07:41;;;;;;;;;;;8.70;35.80;;;;;;5060601;28;19970;-90
2022/03/20 06:10:17;;;;;;;;;;;8.90;35.80;;;;;;5047364;28;20470;-91
2022/03/20 06:12:42;;;;;;;;;;;9.10;35.60;;;;;;5044039;28;19909;-89
2022/03/20 06:15:08;;;;;;;;;;;9.30;35.40;;;;;;5045467;28;20384;-92
2022/03/20 06:17:38;;;;;;;;;;;9.60;35.50;;;;;;5044697;28;20214;-90
2022/03/20 06:20:07;;;;;;;;;;;9.80;35.30;;;;;;5046363;28;19917;-89
2022/03/20 06:22:33;;;;;;;;;;;10.00;34.90;;;;;;5058952;28;19962;-88
2022/03/20 06:24:59;;;;;;;;;;;10.20;34.10;;;;;;5061757;28;20002;-90
2022/03/20 06:27:24;;;;;;;;;;;10.50;34.00;;;;;;5065240;28;19927;-89
2022/03/20 06:29:52;;;;;;;;;;;10.60;33.40;;;;;;5041754;28;19943;-90
2022/03/20 06:32:18;;;;;;;;;;;10.80;33.20;;;;;;5062400;28;19967;-89
2022/03/20 06:34:43;;;;;;;;;;;11.00;32.80;;;;;;5062225;28;19917;-90
2022/03/20 06:37:09;;;;;;;;;;;11.10;32.40;;;;;;5081758;28;19931;-90
2022/03/20 06:39:36;;;;;;;;;;;11.20;32.00;;;;;;5061682;28;19916;-89
2022/03/20 06:42:01;;;;;;;;;;;11.40;31.60;;;;;;5063215;28;19969;-89
2022/03/20 06:44:27;;;;;;;;;;;11.60;31.10;;;;;;5059717;28;20363;-90
2022/03/20 06:46:54;;;;;;;;;;;11.80;31.20;;;;;;5081589;28;19917;-89
2022/03/20 06:49:20;;;;;;;;;;;11.80;30.90;;;;;;5060243;28;20023;-90
2022/03/20 06:51:46;;;;;;;;;;;12.00;30.60;;;;;;5062421;28;19960;-88
2022/03/20 06:54:14;;;;;;;;;;;12.20;30.70;;;;;;5061311;28;19917;-89
2022/03/20 06:56:40;;;;;;;;;;;12.30;30.00;;;;;;5061117;28;19917;-90
2022/03/20 06:59:05;;;;;;;;;;;12.50;29.90;;;;;;5060909;28;19920;-91
2022/03/20 07:01:33;;;;;;;;;;;12.60;29.80;;;;;;5080358;28;19923;-90
2022/03/20 07:03:59;;;;;;;;;;;12.80;29.70;;;;;;5074521;28;19917;-90
2022/03/20 07:06:29;;;;;;;;;;;13.00;29.50;;;;;;5057873;28;19975;-89
2022/03/20 07:08:59;;;;;;;;;;;13.30;29.60;;;;;;5080020;28;19921;-90
2022/03/20 07:11:30;;;;;;;;;;;13.60;29.20;;;;;;5159737;22;19928;-90
2022/03/20 07:13:55;;;;;;;;;;;13.90;29.30;;;;;;5098169;28;19924;-90
2022/03/20 07:16:23;;;;;;;;;;;14.30;28.00;;;;;;5092823;28;19924;-89
2022/03/20 07:18:48;;;;;;;;;;;14.40;27.50;;;;;;5059549;28;20000;-90
2022/03/20 07:21:15;;;;;;;;;;;14.50;27.10;;;;;;5059380;28;19952;-90
2022/03/20 07:23:40;;;;;;;;;;;14.80;27.30;;;;;;5076348;28;19916;-89
2022/03/20 07:31:34;;;;;;;;;;;15.40;25.90;;;;;;5077531;28;19939;-89
2022/03/20 07:34:00;;;;;;;;;;;15.30;25.70;;;;;;5076822;28;19912;-90
2022/03/20 07:36:25;;;;;;;;;;;15.40;25.70;;;;;;5059313;28;19963;-88
2022/03/20 07:38:54;;;;;;;;;;;15.70;25.70;;;;;;5058960;28;19921;-91
2022/03/20 07:41:21;;;;;;;;;;;15.80;25.70;;;;;;5078666;28;19921;-91
2022/03/20 07:43:47;;;;;;;;;;;16.10;25.30;;;;;;5059446;28;20292;-89
2022/03/20 07:46:12;;;;;;;;;;;16.10;25.10;;;;;;5059704;28;19916;-89
2022/03/20 07:48:39;;;;;;;;;;;16.20;24.90;;;;;;5058915;28;20006;-89
2022/03/20 07:51:05;;;;;;;;;;;16.40;24.70;;;;;;5060398;28;19916;-89
2022/03/20 07:53:31;;;;;;;;;;;16.20;24.30;;;;;;5060726;28;20021;-91
2022/03/20 07:55:56;;;;;;;;;;;15.90;24.40;;;;;;5061066;28;19932;-90
2022/03/20 07:58:22;;;;;;;;;;;15.50;24.80;;;;;;5061666;28;20007;-91
2022/03/20 08:00:48;;;;;;;;;;;15.40;24.90;;;;;;5058846;28;19919;-90
2022/03/20 08:03:13;;;;;;;;;;;14.90;25.00;;;;;;5061356;28;20353;-90
2022/03/20 08:05:39;;;;;;;;;;;14.50;25.50;;;;;;5060055;28;20288;-90
2022/03/20 08:08:05;;;;;;;;;;;14.40;25.90;;;;;;5078372;28;19912;-91
2022/03/20 08:10:31;;;;;;;;;;;14.20;26.20;;;;;;5078464;28;19924;-90
2022/03/20 08:12:56;;;;;;;;;;;14.00;26.40;;;;;;5061471;28;19943;-89
2022/03/20 08:15:24;;;;;;;;;;;14.00;26.70;;;;;;5060386;28;19909;-91
2022/03/20 08:17:50;;;;;;;;;;;14.10;27.10;;;;;;5059511;28;19959;-89
2022/03/20 08:20:16;;;;;;;;;;;14.30;27.00;;;;;;5076821;28;19910;-89
2022/03/20 08:22:42;;;;;;;;;;;14.70;26.80;;;;;;5078659;28;20364;-90
2022/03/20 08:25:10;;;;;;;;;;;15.10;26.40;;;;;;5060696;28;19916;-90
2022/03/20 08:27:42;;;;;;;;;;;15.50;26.20;;;;;;5060283;28;19959;-90
2022/03/20 08:30:11;;;;;;;;;;;15.70;25.80;;;;;;5061434;28;19999;-91
2022/03/20 08:32:37;;;;;;;;;;;16.10;25.30;;;;;;5097225;28;20321;-91
2022/03/20 08:35:04;;;;;;;;;;;16.30;25.30;;;;;;5081055;28;19928;-90
2022/03/20 08:37:31;;;;;;;;;;;16.60;25.00;;;;;;5097039;28;20345;-92
2022/03/20 08:39:57;;;;;;;;;;;16.80;24.70;;;;;;5063592;28;19932;-90
2022/03/20 08:42:23;;;;;;;;;;;17.20;24.60;;;;;;5080612;28;20041;-90
2022/03/20 08:44:50;;;;;;;;;;;17.30;24.30;;;;;;5096660;28;20326;-90
2022/03/20 08:47:17;;;;;;;;;;;17.60;24.40;;;;;;5081370;28;20252;-90
2022/03/20 08:49:42;;;;;;;;;;;17.80;24.10;;;;;;5090793;28;19943;-91
2022/03/20 08:52:08;;;;;;;;;;;18.00;23.40;;;;;;5066772;28;20517;-89
2022/03/20 08:54:33;;;;;;;;;;;18.20;23.30;;;;;;5066230;28;19912;-91
2022/03/20 08:57:01;;;;;;;;;;;18.20;23.40;;;;;;5066405;28;20314;-91
2022/03/20 08:59:27;;;;;;;;;;;18.50;23.50;;;;;;5085691;28;19967;-90
2022/03/20 09:01:52;;;;;;;;;;;18.70;23.40;;;;;;5074246;28;19920;-89
2022/03/20 09:04:18;;;;;;;;;;;18.80;23.10;;;;;;5083539;28;19908;-90
2022/03/20 09:06:47;;;;;;;;;;;19.10;23.20;;;;;;5064189;28;19999;-90
2022/03/20 09:09:14;;;;;;;;;;;19.30;23.20;;;;;;5085549;28;19916;-91
2022/03/20 09:11:41;;;;;;;;;;;19.50;22.60;;;;;;5084875;28;19908;-90
2022/03/20 09:14:07;;;;;;;;;;;19.50;22.30;;;;;;5083425;28;19993;-90
2022/03/20 09:19:20;;;;;;;;;;;19.70;22.50;;;;;;5080267;28;19987;-92
2022/03/20 09:21:45;;;;;;;;;;;19.70;22.50;;;;;;5083257;28;19908;-89
2022/03/20 09:24:11;;;;;;;;;;;19.70;22.10;;;;;;5064884;28;19962;-90
2022/03/20 09:26:39;;;;;;;;;;;19.80;22.10;;;;;;5062007;28;19927;-90
2022/03/20 09:29:04;;;;;;;;;;;19.70;22.00;;;;;;5064191;28;19951;-89
2022/03/20 09:31:34;;;;;;;;;;;19.70;22.10;;;;;;5082918;28;19908;-90
2022/03/20 09:34:01;;;;;;;;;;;19.80;21.90;;;;;;5085323;28;19991;-92
2022/03/20 09:36:27;;;;;;;;;;;19.90;21.80;;;;;;5063807;28;19915;-89
2022/03/20 09:38:53;;;;;;;;;;;20.20;21.90;;;;;;5065476;28;19927;-88
2022/03/20 09:41:21;;;;;;;;;;;20.30;21.80;;;;;;5095214;28;20261;-88
2022/03/20 09:43:46;;;;;;;;;;;20.30;21.10;;;;;;5079872;28;19978;-90
2022/03/20 09:46:20;;;;;;;;;;;20.20;21.30;;;;;;5087502;28;19916;-88
2022/03/20 09:48:46;;;;;;;;;;;20.50;21.50;;;;;;5061834;28;20299;-89
2022/03/20 09:51:12;;;;;;;;;;;20.40;21.30;;;;;;5080868;28;19984;-90
2022/03/20 09:53:38;;;;;;;;;;;20.70;21.30;;;;;;5082621;28;19974;-91
2022/03/20 09:56:06;;;;;;;;;;;20.70;21.40;;;;;;5082542;28;19908;-89
2022/03/20 09:58:32;;;;;;;;;;;21.00;21.50;;;;;;5075236;28;20007;-90
2022/03/20 10:01:01;;;;;;;;;;;21.20;21.30;;;;;;5061642;28;19981;-88
2022/03/20 10:03:26;;;;;;;;;;;21.40;21.40;;;;;;5071591;28;20002;-90
2022/03/20 10:06:27;;;;;;;;;;;21.60;20.90;;;;;;5082154;28;19952;-90
2022/03/20 10:09:05;;;;;;;;;;;21.80;20.90;;;;;;5082426;28;19919;-90
2022/03/20 10:11:32;;;;;;;;;;;21.90;20.80;;;;;;5058813;28;19948;-91
2022/03/20 10:14:24;;;;;;;;;;;22.00;20.70;;;;;;5082516;28;19913;-89
2022/03/20 10:16:53;;;;;;;;;;;22.30;20.90;;;;;;5060800;28;19920;-90
2022/03/20 10:19:22;;;;;;;;;;;22.30;19.90;;;;;;5062214;28;19976;-89
2022/03/20 10:21:48;;;;;;;;;;;22.40;20.10;;;;;;5080915;28;19924;-90
2022/03/20 10:24:14;;;;;;;;;;;22.60;20.20;;;;;;5080259;28;19917;-91
2022/03/20 10:26:39;;;;;;;;;;;22.70;20.00;;;;;;5063779;28;19912;-89
2022/03/20 10:31:33;;;;;;;;;;;22.40;19.10;;;;;;5078314;28;20005;-89
2022/03/20 10:33:59;;;;;;;;;;;22.30;19.30;;;;;;5061477;28;19908;-88
2022/03/20 10:36:26;;;;;;;;;;;22.20;19.30;;;;;;5061795;28;19927;-90
2022/03/20 10:38:52;;;;;;;;;;;22.30;19.60;;;;;;5079836;28;19962;-88
2022/03/20 10:41:34;;;;;;;;;;;22.00;19.40;;;;;;5062303;28;20412;-89
2022/03/20 10:44:00;;;;;;;;;;;21.90;19.60;;;;;;5062490;28;19916;-91
2022/03/20 10:46:27;;;;;;;;;;;21.80;19.80;;;;;;5084655;28;19917;-89
2022/03/20 10:49:03;;;;;;;;;;;22.00;20.00;;;;;;5065014;28;19965;-91
2022/03/20 10:51:38;;;;;;;;;;;22.00;19.90;;;;;;5067294;28;19917;-90
2022/03/20 10:54:05;;;;;;;;;;;21.90;19.50;;;;;;5082275;28;19913;-90
2022/03/20 10:56:31;;;;;;;;;;;22.00;19.70;;;;;;5081916;28;19971;-89
2022/03/20 10:58:57;;;;;;;;;;;21.90;19.70;;;;;;5082402;28;19970;-90
2022/03/20 11:01:36;;;;;;;;;;;22.20;20.00;;;;;;5076180;28;20349;-89
2022/03/20 11:04:03;;;;;;;;;;;22.40;20.10;;;;;;5086715;28;19908;-88
2022/03/20 11:06:29;;;;;;;;;;;22.60;19.90;;;;;;5063743;28;19917;-90
2022/03/20 11:08:56;;;;;;;;;;;22.60;19.30;;;;;;5062490;28;19939;-89
2022/03/20 11:11:23;;;;;;;;;;;22.50;19.40;;;;;;5061933;28;19923;-89
2022/03/20 11:13:50;;;;;;;;;;;22.60;19.50;;;;;;5098488;28;19912;-90
2022/03/20 11:16:19;;;;;;;;;;;22.80;19.60;;;;;;5081731;28;19923;-88
2022/03/20 11:18:47;;;;;;;;;;;22.80;19.20;;;;;;5080777;28;19979;-87
2022/03/20 11:21:14;;;;;;;;;;;22.80;19.30;;;;;;5078479;28;19924;-90
2022/03/20 11:23:40;;;;;;;;;;;22.80;19.00;;;;;;5062604;28;19908;-89
2022/03/20 11:26:07;;;;;;;;;;;22.70;19.00;;;;;;5080633;28;19921;-89
2022/03/20 11:28:36;;;;;;;;;;;22.60;19.10;;;;;;5065342;28;19909;-91
2022/03/20 11:31:02;;;;;;;;;;;22.50;19.30;;;;;;5069515;28;20457;-90
2022/03/20 11:33:28;;;;;;;;;;;22.50;19.50;;;;;;5101201;28;19916;-90
2022/03/20 11:35:54;;;;;;;;;;;22.80;19.60;;;;;;5067118;28;19921;-90
2022/03/20 11:38:19;;;;;;;;;;;22.80;19.40;;;;;;5084317;28;19917;-91
2022/03/20 11:41:07;;;;;;;;;;;22.70;19.20;;;;;;5065930;28;19921;-90
2022/03/20 11:43:33;;;;;;;;;;;22.70;19.20;;;;;;5065897;28;20335;-91
2022/03/20 11:46:13;;;;;;;;;;;22.70;19.30;;;;;;5083737;28;19920;-92
2022/03/20 11:48:39;;;;;;;;;;;22.70;19.00;;;;;;5068164;28;19916;-91
2022/03/20 11:51:14;;;;;;;;;;;22.70;19.10;;;;;;5067350;28;19916;-91
2022/03/20 11:53:40;;;;;;;;;;;22.70;19.20;;;;;;5066442;28;19912;-91
2022/03/20 11:56:07;;;;;;;;;;;22.80;19.30;;;;;;5082142;28;19916;-89
2022/03/20 11:58:36;;;;;;;;;;;22.80;19.20;;;;;;5066764;28;19904;-89
2022/03/20 12:01:15;;;;;;;;;;;22.80;19.10;;;;;;5065875;28;20386;-91
2022/03/20 12:03:59;;;;;;;;;;;22.70;19.20;;;;;;5084469;28;19919;-91
2022/03/20 12:07:06;;;;;;;;;;;22.80;19.40;;;;;;5066711;28;19922;-89
2022/03/20 12:09:36;;;;;;;;;;;22.90;19.50;;;;;;5016781;28;19912;-91
2022/03/20 12:12:20;;;;;;;;;;;23.20;19.60;;;;;;5083658;28;20295;-91
2022/03/20 12:14:56;;;;;;;;;;;23.30;19.30;;;;;;5064732;28;19908;-90
2022/03/20 12:17:24;;;;;;;;;;;23.40;19.10;;;;;;5065214;28;19978;-90
2022/03/20 12:19:53;;;;;;;;;;;23.60;19.20;;;;;;5049009;28;19921;-89
2022/03/20 12:25:57;;;;;;;;;;;23.90;19.30;;;;;;5086292;28;20352;-90
2022/03/20 12:28:32;;;;;;;;;;;23.70;18.60;;;;;;5049318;28;19916;-91
2022/03/20 12:31:12;;;;;;;;;;;23.60;18.80;;;;;;5070699;28;19919;-90
2022/03/20 12:33:38;;;;;;;;;;;23.60;19.00;;;;;;5067293;28;19917;-90
2022/03/20 12:36:31;;;;;;;;;;;23.60;19.20;;;;;;5068821;28;19958;-91
2022/03/20 12:39:11;;;;;;;;;;;23.50;19.10;;;;;;5067251;28;20334;-91
2022/03/20 12:41:37;;;;;;;;;;;23.40;19.30;;;;;;5067977;28;19912;-91
2022/03/20 12:44:10;;;;;;;;;;;23.10;19.30;;;;;;5067376;28;19919;-91
2022/03/20 12:46:40;;;;;;;;;;;22.70;19.50;;;;;;5049104;28;19974;-92
2022/03/20 12:49:07;;;;;;;;;;;22.40;19.90;;;;;;5065224;28;19915;-90
2022/03/20 12:51:41;;;;;;;;;;;22.50;20.00;;;;;;5081308;28;19923;-90
2022/03/20 12:54:16;;;;;;;;;;;22.30;20.10;;;;;;5064162;28;20050;-91
2022/03/20 12:59:45;;;;;;;;;;;22.40;20.30;;;;;;5082160;28;19971;-89
2022/03/20 13:02:17;;;;;;;;;;;22.60;20.50;;;;;;5061776;28;19917;-90
2022/03/20 13:04:48;;;;;;;;;;;22.70;20.50;;;;;;5062415;28;19956;-90
2022/03/20 13:07:24;;;;;;;;;;;23.00;20.50;;;;;;5083350;28;19909;-89
2022/03/20 13:09:58;;;;;;;;;;;22.90;20.00;;;;;;5097768;28;19920;-89
2022/03/20 13:12:24;;;;;;;;;;;22.70;19.90;;;;;;5096967;28;19915;-89
2022/03/20 13:14:58;;;;;;;;;;;22.50;20.20;;;;;;5096849;28;19916;-90
2022/03/20 13:17:25;;;;;;;;;;;22.50;20.40;;;;;;5063302;28;20003;-91
2022/03/20 13:19:54;;;;;;;;;;;22.40;20.40;;;;;;5079813;28;19932;-89
2022/03/20 13:22:39;;;;;;;;;;;22.30;20.60;;;;;;5098078;28;19916;-90
2022/03/20 13:25:22;;;;;;;;;;;22.30;20.60;;;;;;5061684;28;19932;-89
2022/03/20 13:27:49;;;;;;;;;;;21.90;20.70;;;;;;5095680;28;19935;-89
2022/03/20 13:30:16;;;;;;;;;;;21.70;20.80;;;;;;5094968;28;20037;-89
2022/03/20 13:32:43;;;;;;;;;;;21.50;21.30;;;;;;5095490;28;19909;-90
2022/03/20 13:35:08;;;;;;;;;;;21.30;21.70;;;;;;5096454;28;20385;-89
2022/03/20 13:37:38;;;;;;;;;;;20.90;22.00;;;;;;5095205;28;19912;-89
2022/03/20 13:40:07;;;;;;;;;;;20.40;22.40;;;;;;5096259;28;19970;-89
2022/03/20 13:42:36;;;;;;;;;;;20.30;22.60;;;;;;5095804;28;19956;-89
2022/03/20 13:45:13;;;;;;;;;;;20.10;22.90;;;;;;5095419;28;19967;-89
2022/03/20 13:47:44;;;;;;;;;;;19.80;23.20;;;;;;5094998;28;19913;-90
2022/03/20 13:50:14;;;;;;;;;;;19.70;23.30;;;;;;5094419;28;20431;-90
2022/03/20 13:52:40;;;;;;;;;;;19.50;23.50;;;;;;5078722;28;19912;-89
2022/03/20 13:55:19;;;;;;;;;;;19.30;23.70;;;;;;5094842;28;20260;-89
2022/03/20 13:57:48;;;;;;;;;;;19.30;23.90;;;;;;5094622;28;20316;-89
2022/03/20 14:00:14;;;;;;;;;;;19.30;24.10;;;;;;5094977;28;19924;-89
2022/03/20 14:02:41;;;;;;;;;;;19.30;24.10;;;;;;5061364;28;19912;-89
2022/03/20 14:05:11;;;;;;;;;;;19.40;24.30;;;;;;5079913;28;19938;-89
2022/03/20 14:07:40;;;;;;;;;;;19.50;24.70;;;;;;5095630;28;19912;-89
2022/03/20 14:10:16;;;;;;;;;;;19.40;24.80;;;;;;5094296;28;20011;-90
2022/03/20 14:12:42;;;;;;;;;;;19.40;24.70;;;;;;5079710;28;20248;-89
2022/03/20 14:15:09;;;;;;;;;;;19.40;24.80;;;;;;5094672;28;19935;-89
2022/03/20 14:17:38;;;;;;;;;;;19.40;24.80;;;;;;5095591;28;19912;-89
2022/03/20 14:20:07;;;;;;;;;;;19.40;24.70;;;;;;5095981;28;19920;-89
2022/03/20 14:22:53;;;;;;;;;;;19.40;24.80;;;;;;5097553;28;19995;-92
2022/03/20 14:25:43;;;;;;;;;;;19.50;24.90;;;;;;5097783;28;19912;-90
2022/03/20 14:28:12;;;;;;;;;;;19.50;25.00;;;;;;5061403;28;19912;-90
2022/03/20 14:39:28;;;;;;;;;;;19.50;25.10;;;;;;5064208;28;19931;-89
2022/03/20 14:41:57;;;;;;;;;;;19.50;25.20;;;;;;5095296;28;19913;-89
2022/03/20 14:44:24;;;;;;;;;;;19.50;25.20;;;;;;5094794;28;20423;-89
2022/03/20 14:46:53;;;;;;;;;;;19.60;25.30;;;;;;5095158;28;19951;-88
2022/03/20 14:49:20;;;;;;;;;;;19.50;25.30;;;;;;5094125;28;19912;-90
2022/03/20 14:51:46;;;;;;;;;;;19.60;25.50;;;;;;5094334;28;19959;-90
2022/03/20 14:54:13;;;;;;;;;;;19.60;25.60;;;;;;5094321;28;19955;-87
2022/03/20 14:56:39;;;;;;;;;;;19.50;25.60;;;;;;5094266;28;20432;-89
2022/03/20 14:59:05;;;;;;;;;;;19.50;25.60;;;;;;5092946;28;20296;-89
2022/03/20 15:01:31;;;;;;;;;;;19.50;25.70;;;;;;5093835;28;19921;-89
2022/03/20 15:03:57;;;;;;;;;;;19.70;25.80;;;;;;5078918;28;19917;-89
2022/03/20 15:06:26;;;;;;;;;;;19.70;25.70;;;;;;5094575;28;19969;-90
2022/03/20 15:11:36;;;;;;;;;;;19.70;25.80;;;;;;5079205;28;19935;-89
2022/03/20 15:14:15;;;;;;;;;;;19.60;25.80;;;;;;5095150;28;19913;-89
2022/03/20 15:16:41;;;;;;;;;;;19.60;25.70;;;;;;5098024;28;19912;-89
2022/03/20 15:19:07;;;;;;;;;;;19.60;25.80;;;;;;5096088;28;19964;-90
2022/03/20 15:21:33;;;;;;;;;;;19.70;25.80;;;;;;5094324;28;19917;-89